»·PEaware :: N786SC KBFL-KSBP

N786SC :: KBFL-KSBP

FLIGHT INFORMATION

Flight Status: Arrived
Operator: Privately registered:
United States
More flights under this callsign
Pilot: Jereme M. (20698)
Aircraft: CESSNA 172 SKYHAWK
(C172)
More flights by this aircraft type
Origin: KBFL Meadows
United States
Destination: KSBP San Luis Co Regl
United States
More flights between these airports :: More routes between these airports
Route: CADAB
File this flight plan on PilotEdge
Remarks:
Altitude:
(Current/Filed)
6,500ft
Speed:
(Current/Filed)
110kts
Departed: 07-Oct-18 05:02 PM
Arrived: 07-Oct-18 05:51 PM
Distance/Time
Traveled:
78nm/0:49
Distance/Time
To Go:
Arrived

Flight Plot

Page will automatically refresh every two minutes.

Flight plan parsing failed; only flown route is shown


Map Options




Map Legend


Flown Route
Filed Route
Departure Airport
Arrival Airport
Navaid (VOR, NDB)
Fix

Horizontal Profiles

Position Reports

Time Latitude Longitude Heading Altitude Ground
Speed
07-Oct-18 16:52 35.426185 -119.042680 177 510ft 0kts
07-Oct-18 16:53 35.426185 -119.042680 177 510ft 0kts
07-Oct-18 16:54 35.426185 -119.042680 177 510ft 0kts
07-Oct-18 16:55 35.426185 -119.042680 177 510ft 0kts
07-Oct-18 16:56 35.426057 -119.043054 298 510ft 4kts
07-Oct-18 16:57 35.425858 -119.043402 241 510ft 0kts
07-Oct-18 16:58 35.425858 -119.043402 241 510ft 0kts
07-Oct-18 16:59 35.425858 -119.043402 241 510ft 0kts
07-Oct-18 17:00 35.425858 -119.043402 241 510ft 0kts
07-Oct-18 17:01 35.425858 -119.043402 241 510ft 0kts
07-Oct-18 17:02 35.425564 -119.044285 256 510ft 12kts
07-Oct-18 17:03 35.425503 -119.045306 269 510ft 8kts
07-Oct-18 17:04 35.429810 -119.051317 313 510ft 58kts
07-Oct-18 17:05 35.447936 -119.072696 320 1109ft 94kts
07-Oct-18 17:06 35.449796 -119.100858 259 1919ft 91kts
07-Oct-18 17:07 35.443420 -119.129612 253 2716ft 84kts
07-Oct-18 17:08 35.437289 -119.156350 253 3463ft 83kts
07-Oct-18 17:09 35.431267 -119.182564 253 4133ft 83kts
07-Oct-18 17:10 35.425144 -119.209263 253 4826ft 80kts
07-Oct-18 17:11 35.419267 -119.234698 253 5481ft 79kts
07-Oct-18 17:12 35.413991 -119.257615 253 5930ft 86kts
07-Oct-18 17:13 35.406462 -119.290480 254 6488ft 97kts
07-Oct-18 17:14 35.398797 -119.324292 254 6494ft 111kts
07-Oct-18 17:15 35.391853 -119.354935 254 6494ft 112kts
07-Oct-18 17:16 35.382109 -119.397846 254 6494ft 112kts
07-Oct-18 17:17 35.375134 -119.428570 254 6494ft 112kts
07-Oct-18 17:18 35.365365 -119.471606 254 6494ft 112kts
07-Oct-18 17:19 35.358354 -119.502433 254 6494ft 112kts
07-Oct-18 17:20 35.348554 -119.545439 254 6494ft 112kts
07-Oct-18 17:21 35.341571 -119.576115 254 6494ft 112kts
07-Oct-18 17:22 35.333203 -119.612801 254 6494ft 112kts
07-Oct-18 17:23 35.324794 -119.649662 254 6494ft 112kts
07-Oct-18 17:24 35.316455 -119.686196 254 6494ft 112kts
07-Oct-18 17:25 35.308018 -119.723119 254 6494ft 112kts
07-Oct-18 17:26 35.299600 -119.759917 253 6494ft 112kts
07-Oct-18 17:27 35.291165 -119.796759 254 6494ft 112kts
07-Oct-18 17:28 35.282724 -119.833615 253 6494ft 112kts
07-Oct-18 17:29 35.273936 -119.870277 251 6494ft 112kts
07-Oct-18 17:30 35.263966 -119.906383 251 6494ft 112kts
07-Oct-18 17:31 35.253926 -119.942672 251 6494ft 112kts
07-Oct-18 17:32 35.243910 -119.978876 251 6493ft 112kts
07-Oct-18 17:33 35.233950 -120.014897 251 6493ft 112kts
07-Oct-18 17:34 35.223958 -120.050987 251 6493ft 112kts
07-Oct-18 17:35 35.214033 -120.086767 251 6493ft 112kts
07-Oct-18 17:36 35.204003 -120.122908 251 6493ft 112kts
07-Oct-18 17:37 35.194459 -120.159363 253 6493ft 112kts
07-Oct-18 17:38 35.185476 -120.195813 253 6493ft 112kts
07-Oct-18 17:39 35.176443 -120.232452 253 6493ft 112kts
07-Oct-18 17:40 35.167479 -120.268842 253 6493ft 112kts
07-Oct-18 17:41 35.159186 -120.302568 253 6092ft 108kts
07-Oct-18 17:42 35.150559 -120.337572 253 5592ft 107kts
07-Oct-18 17:43 35.141955 -120.372463 253 5092ft 107kts
07-Oct-18 17:44 35.133470 -120.406846 253 4598ft 107kts
07-Oct-18 17:45 35.125365 -120.442624 273 4003ft 112kts
07-Oct-18 17:46 35.141400 -120.475155 304 3401ft 114kts
07-Oct-18 17:47 35.159296 -120.507073 304 2807ft 114kts
07-Oct-18 17:48 35.174853 -120.534306 307 2152ft 96kts
07-Oct-18 17:49 35.189630 -120.559010 311 1648ft 87kts
07-Oct-18 17:50 35.204378 -120.582189 304 1262ft 77kts
07-Oct-18 17:51 35.216454 -120.604337 304 897ft 80kts
07-Oct-18 17:52 35.227864 -120.624346 304 432ft 66kts
07-Oct-18 17:53 35.236314 -120.639227 305 215ft 32kts
07-Oct-18 17:54 35.238091 -120.639801 7 215ft 14kts
07-Oct-18 17:55 35.238632 -120.640086 208 215ft 0kts
07-Oct-18 17:56 35.238632 -120.640086 208 215ft 0kts
07-Oct-18 17:57 35.238632 -120.640086 208 215ft 0kts
07-Oct-18 17:58 35.238632 -120.640086 208 215ft 0kts

Navigation Log

Ident Type
Flight plan parsing failed, navigation log unavailable